sensor_id;sensor_type;location;lat;lon;timestamp;pressure;altitude;pressure_sealevel;temperature;humidity
12763;BME280;6445;52.490;13.378;2023-07-16T00:02:05;99456.84;;;-146.10;100.00
12763;BME280;6445;52.490;13.378;2023-07-16T00:04:31;99456.84;;;-146.10;100.00
12763;BME280;6445;52.490;13.378;2023-07-16T00:06:56;99197.72;;;-146.10;100.00
12763;BME280;6445;52.490;13.378;2023-07-16T00:09:21;97643.44;;;-146.10;100.00
12763;BME280;6445;52.490;13.378;2023-07-16T00:11:47;99715.97;;;-146.10;100.00
12763;BME280;6445;52.490;13.378;2023-07-16T00:14:12;96607.56;;;-146.10;100.00
12763;BME280;6445;52.490;13.378;2023-07-16T00:16:37;94536.63;;;-146.10;100.00
12763;BME280;6445;52.490;13.378;2023-07-16T00:19:02;94536.63;;;-146.10;100.00
12763;BME280;6445;52.490;13.378;2023-07-16T00:21:28;94795.44;;;-146.10;100.00
12763;BME280;6445;52.490;13.378;2023-07-16T00:23:53;97125.47;;;-146.10;100.00
12763;BME280;6445;52.490;13.378;2023-07-16T00:26:18;99197.72;;;-146.10;100.00
12763;BME280;6445;52.490;13.378;2023-07-16T00:28:44;100493.44;;;-146.10;100.00
12763;BME280;6445;52.490;13.378;2023-07-16T00:31:09;100493.44;;;-146.10;100.00
12763;BME280;6445;52.490;13.378;2023-07-16T00:33:35;98420.50;;;-146.10;100.00
12763;BME280;6445;52.490;13.378;2023-07-16T00:36:00;102048.81;;;-146.10;100.00
12763;BME280;6445;52.490;13.378;2023-07-16T00:38:25;100493.44;;;-146.10;100.00
12763;BME280;6445;52.490;13.378;2023-07-16T00:40:50;103086.06;;;-146.10;100.00
12763;BME280;6445;52.490;13.378;2023-07-16T00:43:16;104123.59;;;-146.10;100.00
12763;BME280;6445;52.490;13.378;2023-07-16T00:45:42;101271.06;;;-146.10;100.00
12763;BME280;6445;52.490;13.378;2023-07-16T00:48:10;101011.81;;;-146.10;100.00
12763;BME280;6445;52.490;13.378;2023-07-16T00:50:36;102826.75;;;-146.10;100.00
12763;BME280;6445;52.490;13.378;2023-07-16T00:53:05;99456.84;;;-146.10;100.00
12763;BME280;6445;52.490;13.378;2023-07-16T00:55:31;98161.47;;;-146.10;100.00
12763;BME280;6445;52.490;13.378;2023-07-16T00:58:01;96866.50;;;-146.10;100.00
12763;BME280;6445;52.490;13.378;2023-07-16T01:00:30;98679.56;;;-146.10;100.00
12763;BME280;6445;52.490;13.378;2023-07-16T01:02:55;99975.09;;;-146.10;100.00
12763;BME280;6445;52.490;13.378;2023-07-16T01:05:22;101789.53;;;-146.10;100.00
12763;BME280;6445;52.490;13.378;2023-07-16T01:07:55;103086.06;;;-146.10;100.00
12763;BME280;6445;52.490;13.378;2023-07-16T01:10:22;103604.81;;;-146.10;100.00
12763;BME280;6445;52.490;13.378;2023-07-16T01:12:50;104642.47;;;-146.10;100.00
12763;BME280;6445;52.490;13.378;2023-07-16T01:15:16;105680.38;;;-146.10;100.00
12763;BME280;6445;52.490;13.378;2023-07-16T01:17:42;106199.44;;;-146.10;100.00
12763;BME280;6445;52.490;13.378;2023-07-16T01:20:08;107237.78;;;-146.10;100.00
12763;BME280;6445;52.490;13.378;2023-07-16T01:22:52;105939.91;;;-146.10;100.00
12763;BME280;6445;52.490;13.378;2023-07-16T01:31:17;112953.25;;;-146.10;100.00
12763;BME280;6445;52.490;13.378;2023-07-16T01:33:42;114513.44;;;-146.10;100.00
12763;BME280;6445;52.490;13.378;2023-07-16T01:36:08;114773.50;;;-146.10;100.00
12763;BME280;6445;52.490;13.378;2023-07-16T01:38:35;114253.34;;;-146.10;100.00
12763;BME280;6445;52.490;13.378;2023-07-16T01:41:00;114513.44;;;-146.10;100.00
12763;BME280;6445;52.490;13.378;2023-07-16T01:43:26;114253.34;;;-146.10;100.00
12763;BME280;6445;52.490;13.378;2023-07-16T01:45:51;114253.34;;;-146.10;100.00
12763;BME280;6445;52.490;13.378;2023-07-16T01:50:51;112693.28;;;-146.10;100.00
12763;BME280;6445;52.490;13.378;2023-07-16T01:53:16;109834.72;;;-146.10;100.00
12763;BME280;6445;52.490;13.378;2023-07-16T01:55:41;106978.16;;;-146.10;100.00
12763;BME280;6445;52.490;13.378;2023-07-16T01:58:07;104383.03;;;-146.10;100.00
12763;BME280;6445;52.490;13.378;2023-07-16T02:00:33;101530.28;;;-146.10;100.00
12763;BME280;6445;52.490;13.378;2023-07-16T02:02:58;100493.44;;;-146.10;100.00
12763;BME280;6445;52.490;13.378;2023-07-16T02:05:23;99975.09;;;-146.10;100.00
12763;BME280;6445;52.490;13.378;2023-07-16T02:07:48;99715.97;;;-146.10;100.00
12763;BME280;6445;52.490;13.378;2023-07-16T02:10:14;98161.47;;;-146.10;100.00
12763;BME280;6445;52.490;13.378;2023-07-16T02:12:39;96607.56;;;-146.10;100.00
12763;BME280;6445;52.490;13.378;2023-07-16T02:15:05;94795.44;;;-146.10;100.00
12763;BME280;6445;52.490;13.378;2023-07-16T02:17:30;96607.56;;;-146.10;100.00
12763;BME280;6445;52.490;13.378;2023-07-16T02:19:55;101789.53;;;-146.10;100.00
12763;BME280;6445;52.490;13.378;2023-07-16T02:22:21;107237.78;;;-146.10;100.00
12763;BME280;6445;52.490;13.378;2023-07-16T02:24:46;112433.34;;;-146.10;100.00
12763;BME280;6445;52.490;13.378;2023-07-16T02:27:11;115033.63;;;-146.10;100.00
12763;BME280;6445;52.490;13.378;2023-07-16T02:29:36;116854.78;;;-146.10;100.00
12763;BME280;6445;52.490;13.378;2023-07-16T02:32:02;117375.28;;;-146.10;100.00
12763;BME280;6445;52.490;13.378;2023-07-16T02:34:27;118416.44;;;-146.10;100.00
12763;BME280;6445;52.490;13.378;2023-07-16T02:36:52;118418.47;;;-146.10;100.00
12763;BME280;6445;52.490;13.378;2023-07-16T02:39:17;118418.47;;;-146.10;100.00
12763;BME280;6445;52.490;13.378;2023-07-16T02:41:43;118418.47;;;-146.10;100.00
12763;BME280;6445;52.490;13.378;2023-07-16T02:44:09;118418.47;;;-146.10;100.00
12763;BME280;6445;52.490;13.378;2023-07-16T02:46:34;118418.47;;;-146.10;100.00
12763;BME280;6445;52.490;13.378;2023-07-16T02:49:00;118418.47;;;-146.10;100.00
12763;BME280;6445;52.490;13.378;2023-07-16T02:51:25;118418.47;;;-146.10;100.00
12763;BME280;6445;52.490;13.378;2023-07-16T02:53:50;118418.47;;;-146.10;100.00
12763;BME280;6445;52.490;13.378;2023-07-16T02:56:16;118418.47;;;-146.10;100.00
12763;BME280;6445;52.490;13.378;2023-07-16T02:58:41;118418.47;;;-146.10;100.00
12763;BME280;6445;52.490;13.378;2023-07-16T03:01:07;118418.47;;;-146.10;100.00
12763;BME280;6445;52.490;13.378;2023-07-16T03:03:32;118418.47;;;-146.10;100.00
12763;BME280;6445;52.490;13.378;2023-07-16T03:05:57;118418.47;;;-146.10;100.00
12763;BME280;6445;52.490;13.378;2023-07-16T03:08:22;118418.47;;;-146.10;100.00
12763;BME280;6445;52.490;13.378;2023-07-16T03:10:51;118418.47;;;-146.10;100.00
12763;BME280;6445;52.490;13.378;2023-07-16T03:13:16;118418.47;;;-146.10;100.00
12763;BME280;6445;52.490;13.378;2023-07-16T03:15:41;118418.47;;;-146.10;100.00
12763;BME280;6445;52.490;13.378;2023-07-16T03:18:07;118418.47;;;-146.10;100.00
12763;BME280;6445;52.490;13.378;2023-07-16T03:20:32;118418.47;;;-146.10;100.00
12763;BME280;6445;52.490;13.378;2023-07-16T03:22:57;118418.47;;;-146.10;100.00
12763;BME280;6445;52.490;13.378;2023-07-16T03:25:22;118418.47;;;-146.10;100.00
12763;BME280;6445;52.490;13.378;2023-07-16T03:27:48;118418.47;;;-146.10;100.00
12763;BME280;6445;52.490;13.378;2023-07-16T03:30:13;118418.47;;;-146.10;100.00
12763;BME280;6445;52.490;13.378;2023-07-16T03:32:38;118418.47;;;-146.10;100.00
12763;BME280;6445;52.490;13.378;2023-07-16T03:35:04;118418.47;;;-146.10;100.00
12763;BME280;6445;52.490;13.378;2023-07-16T03:37:29;118418.47;;;-146.10;100.00
12763;BME280;6445;52.490;13.378;2023-07-16T03:39:54;118418.47;;;-146.10;100.00
12763;BME280;6445;52.490;13.378;2023-07-16T03:42:19;118418.47;;;-146.10;100.00
12763;BME280;6445;52.490;13.378;2023-07-16T03:44:47;118418.47;;;-146.10;100.00
12763;BME280;6445;52.490;13.378;2023-07-16T03:47:12;118418.47;;;-146.10;100.00
12763;BME280;6445;52.490;13.378;2023-07-16T03:49:37;118418.47;;;-146.10;100.00
12763;BME280;6445;52.490;13.378;2023-07-16T03:52:03;118418.47;;;-146.10;100.00
12763;BME280;6445;52.490;13.378;2023-07-16T03:54:28;118418.47;;;-146.10;100.00
12763;BME280;6445;52.490;13.378;2023-07-16T03:56:54;118418.47;;;-146.10;100.00
12763;BME280;6445;52.490;13.378;2023-07-16T03:59:19;118418.47;;;-146.10;100.00
12763;BME280;6445;52.490;13.378;2023-07-16T04:01:44;118418.47;;;-146.10;100.00
12763;BME280;6445;52.490;13.378;2023-07-16T04:04:09;118418.47;;;-146.10;100.00
12763;BME280;6445;52.490;13.378;2023-07-16T04:06:35;118418.47;;;-146.10;100.00
12763;BME280;6445;52.490;13.378;2023-07-16T04:09:00;118418.47;;;-146.10;100.00
12763;BME280;6445;52.490;13.378;2023-07-16T04:11:25;118418.47;;;-146.10;100.00
12763;BME280;6445;52.490;13.378;2023-07-16T04:13:50;118418.47;;;-146.10;100.00
12763;BME280;6445;52.490;13.378;2023-07-16T04:16:16;118418.47;;;-146.10;100.00
12763;BME280;6445;52.490;13.378;2023-07-16T04:18:41;118418.47;;;-146.10;100.00
12763;BME280;6445;52.490;13.378;2023-07-16T04:21:06;118418.47;;;-146.10;100.00
12763;BME280;6445;52.490;13.378;2023-07-16T04:23:31;118418.47;;;-146.10;100.00
12763;BME280;6445;52.490;13.378;2023-07-16T04:25:57;118418.47;;;-146.10;100.00
12763;BME280;6445;52.490;13.378;2023-07-16T04:28:22;118418.47;;;-146.10;100.00
12763;BME280;6445;52.490;13.378;2023-07-16T04:30:47;118418.47;;;-146.10;100.00
12763;BME280;6445;52.490;13.378;2023-07-16T04:33:12;118418.47;;;-146.10;100.00
12763;BME280;6445;52.490;13.378;2023-07-16T04:35:38;118418.47;;;-146.10;100.00
12763;BME280;6445;52.490;13.378;2023-07-16T04:38:03;118418.47;;;-146.10;100.00
12763;BME280;6445;52.490;13.378;2023-07-16T04:40:29;118418.47;;;-146.10;100.00
12763;BME280;6445;52.490;13.378;2023-07-16T04:42:54;118418.47;;;-146.10;100.00
12763;BME280;6445;52.490;13.378;2023-07-16T04:45:20;118418.47;;;-146.10;100.00
12763;BME280;6445;52.490;13.378;2023-07-16T04:47:45;118418.47;;;-146.10;100.00
12763;BME280;6445;52.490;13.378;2023-07-16T04:50:10;118418.47;;;-146.10;100.00
12763;BME280;6445;52.490;13.378;2023-07-16T04:52:35;118418.47;;;-146.10;100.00
12763;BME280;6445;52.490;13.378;2023-07-16T04:55:01;118418.47;;;-146.10;100.00
12763;BME280;6445;52.490;13.378;2023-07-16T04:57:26;118418.47;;;-146.10;100.00
12763;BME280;6445;52.490;13.378;2023-07-16T04:59:51;118418.47;;;-146.10;100.00
12763;BME280;6445;52.490;13.378;2023-07-16T05:02:17;118418.47;;;-146.10;100.00
12763;BME280;6445;52.490;13.378;2023-07-16T05:04:42;118418.47;;;-146.10;100.00
12763;BME280;6445;52.490;13.378;2023-07-16T05:07:09;118418.47;;;-146.10;100.00
12763;BME280;6445;52.490;13.378;2023-07-16T05:09:34;118418.47;;;-146.10;100.00
12763;BME280;6445;52.490;13.378;2023-07-16T05:11:59;118418.47;;;-146.10;100.00
12763;BME280;6445;52.490;13.378;2023-07-16T05:14:27;118418.47;;;-146.10;100.00
12763;BME280;6445;52.490;13.378;2023-07-16T05:16:52;118418.47;;;-146.10;100.00
12763;BME280;6445;52.490;13.378;2023-07-16T05:19:18;118418.47;;;-146.10;100.00
12763;BME280;6445;52.490;13.378;2023-07-16T05:21:43;118418.47;;;-146.10;100.00
12763;BME280;6445;52.490;13.378;2023-07-16T05:24:08;118418.47;;;-146.10;100.00
12763;BME280;6445;52.490;13.378;2023-07-16T05:26:33;118418.47;;;-146.10;100.00
12763;BME280;6445;52.490;13.378;2023-07-16T05:28:59;118418.47;;;-146.10;100.00
12763;BME280;6445;52.490;13.378;2023-07-16T05:31:24;118418.47;;;-146.10;100.00
12763;BME280;6445;52.490;13.378;2023-07-16T05:33:49;118418.47;;;-146.10;100.00
12763;BME280;6445;52.490;13.378;2023-07-16T05:36:14;118416.44;;;-146.10;100.00
12763;BME280;6445;52.490;13.378;2023-07-16T05:38:40;118416.44;;;-146.10;100.00
12763;BME280;6445;52.490;13.378;2023-07-16T05:41:05;118416.44;;;-146.10;100.00
12763;BME280;6445;52.490;13.378;2023-07-16T05:43:33;118156.13;;;-146.10;100.00
12763;BME280;6445;52.490;13.378;2023-07-16T05:45:58;117895.81;;;-146.10;100.00
12763;BME280;6445;52.490;13.378;2023-07-16T05:48:24;117375.28;;;-146.10;100.00
12763;BME280;6445;52.490;13.378;2023-07-16T05:50:49;114513.44;;;-146.10;100.00
12763;BME280;6445;52.490;13.378;2023-07-16T05:53:15;112953.25;;;-146.10;100.00
12763;BME280;6445;52.490;13.378;2023-07-16T05:55:40;113733.28;;;-146.10;100.00
12763;BME280;6445;52.490;13.378;2023-07-16T05:58:05;91949.44;;;-146.10;100.00
12763;BME280;6445;52.490;13.378;2023-07-16T06:00:30;66875.50;;;-146.10;100.00
12763;BME280;6445;52.490;13.378;2023-07-16T06:02:56;64308.09;;;-146.10;100.00
12763;BME280;6445;52.490;13.378;2023-07-16T06:05:21;59715.38;;;-146.10;100.00
12763;BME280;6445;52.490;13.378;2023-07-16T06:07:46;56229.28;;;-146.10;100.00
12763;BME280;6445;52.490;13.378;2023-07-16T06:10:12;54947.78;;;-146.10;100.00
12763;BME280;6445;52.490;13.378;2023-07-16T06:12:37;55210.06;;;-146.10;100.00
12763;BME280;6445;52.490;13.378;2023-07-16T06:15:02;54591.47;;;-146.10;100.00
12763;BME280;6445;52.490;13.378;2023-07-16T06:17:28;55226.06;;;-146.10;100.00
12763;BME280;6445;52.490;13.378;2023-07-16T06:19:53;54583.44;;;-146.10;100.00
12763;BME280;6445;52.490;13.378;2023-07-16T06:22:19;54557.44;;;-146.10;100.00
12763;BME280;6445;52.490;13.378;2023-07-16T06:24:44;54137.06;;;-146.10;99.48
12763;BME280;6445;52.490;13.378;2023-07-16T06:27:09;55416.28;;;-146.10;100.00
12763;BME280;6445;52.490;13.378;2023-07-16T06:29:34;54417.31;;;-146.10;99.59
12763;BME280;6445;52.490;13.378;2023-07-16T06:32:00;53802.81;;;-146.10;94.84
12763;BME280;6445;52.490;13.378;2023-07-16T06:34:25;53142.41;;;-146.10;82.09
12763;BME280;6445;52.490;13.378;2023-07-16T06:36:50;53166.44;;;-146.10;83.91
12763;BME280;6445;52.490;13.378;2023-07-16T06:39:16;53138.41;;;-146.10;80.30
12763;BME280;6445;52.490;13.378;2023-07-16T06:41:41;53072.38;;;-146.10;72.73
12763;BME280;6445;52.490;13.378;2023-07-16T06:44:06;53132.41;;;-146.10;74.32
12763;BME280;6445;52.490;13.378;2023-07-16T06:46:32;53080.38;;;-146.10;69.55
12763;BME280;6445;52.490;13.378;2023-07-16T06:48:57;53120.41;;;-146.10;75.49
12763;BME280;6445;52.490;13.378;2023-07-16T06:51:22;53122.41;;;-146.10;71.26
12763;BME280;6445;52.490;13.378;2023-07-16T06:53:47;53182.44;;;-146.10;62.08
12763;BME280;6445;52.490;13.378;2023-07-16T06:56:13;53070.38;;;-146.10;65.31
12763;BME280;6445;52.490;13.378;2023-07-16T06:58:38;53348.53;;;-146.10;90.15
12763;BME280;6445;52.490;13.378;2023-07-16T07:01:03;54143.06;;;-146.10;95.43
12763;BME280;6445;52.490;13.378;2023-07-16T07:03:28;53610.69;;;-146.10;88.64
12763;BME280;6445;52.490;13.378;2023-07-16T07:05:54;53164.44;;;-146.10;75.68
12763;BME280;6445;52.490;13.378;2023-07-16T07:08:19;53254.47;;;-146.10;79.40
12763;BME280;6445;52.490;13.378;2023-07-16T07:10:44;53632.72;;;-146.10;91.36
12763;BME280;6445;52.490;13.378;2023-07-16T07:13:09;54157.09;;;-146.10;94.50
12763;BME280;6445;52.490;13.378;2023-07-16T07:15:35;53870.88;;;-146.10;90.15
12763;BME280;6445;52.490;13.378;2023-07-16T07:18:00;53452.59;;;-146.10;83.44
12763;BME280;6445;52.490;13.378;2023-07-16T07:20:25;53378.53;;;-146.10;83.71
12763;BME280;6445;52.490;13.378;2023-07-16T07:22:50;53186.44;;;-146.10;75.77
12763;BME280;6445;52.490;13.378;2023-07-16T07:25:16;53232.47;;;-146.10;80.35
12763;BME280;6445;52.490;13.378;2023-07-16T07:27:41;53404.56;;;-146.10;85.04
12763;BME280;6445;52.490;13.378;2023-07-16T07:30:07;53826.84;;;-146.10;91.06
12763;BME280;6445;52.490;13.378;2023-07-16T07:32:32;54063.00;;;-146.10;90.96
12763;BME280;6445;52.490;13.378;2023-07-16T07:34:57;53248.47;;;-146.10;79.34
12763;BME280;6445;52.490;13.378;2023-07-16T07:37:23;53146.41;;;-146.10;68.38
12763;BME280;6445;52.490;13.378;2023-07-16T07:39:52;53036.34;;;-146.10;64.51
12763;BME280;6445;52.490;13.378;2023-07-16T07:42:17;53074.38;;;-146.10;75.13
12763;BME280;6445;52.490;13.378;2023-07-16T07:44:42;53086.38;;;-146.10;74.40
12763;BME280;6445;52.490;13.378;2023-07-16T07:47:08;53098.38;;;-146.10;74.65
12763;BME280;6445;52.490;13.378;2023-07-16T07:49:33;53620.69;;;-146.10;88.58
12763;BME280;6445;52.490;13.378;2023-07-16T07:51:59;54667.53;;;-146.10;95.00
12763;BME280;6445;52.490;13.378;2023-07-16T07:54:24;55314.16;;;-146.10;96.44
12763;BME280;6445;52.490;13.378;2023-07-16T07:56:49;55087.94;;;-146.10;94.25
12763;BME280;6445;52.490;13.378;2023-07-16T07:59:15;55302.16;;;-146.10;96.07
12763;BME280;6445;52.490;13.378;2023-07-16T08:01:40;55918.88;;;-146.10;97.63
12763;BME280;6445;52.490;13.378;2023-07-16T08:04:05;56061.06;;;-146.10;96.72
12763;BME280;6445;52.490;13.378;2023-07-16T08:06:31;53182.44;;;-146.10;73.95
12763;BME280;6445;52.490;13.378;2023-07-16T08:08:56;53060.38;;;-146.10;59.61
12763;BME280;6445;52.490;13.378;2023-07-16T08:11:22;52998.34;;;-146.10;63.74
12763;BME280;6445;52.490;13.378;2023-07-16T08:13:47;52882.28;;;-146.10;67.13
12763;BME280;6445;52.490;13.378;2023-07-16T08:16:12;52818.25;;;-146.10;69.61
12763;BME280;6445;52.490;13.378;2023-07-16T08:18:37;52886.28;;;-146.10;72.21
12763;BME280;6445;52.490;13.378;2023-07-16T08:21:03;52916.31;;;-146.10;74.22
12763;BME280;6445;52.490;13.378;2023-07-16T08:23:28;52924.31;;;-146.10;77.64
12763;BME280;6445;52.490;13.378;2023-07-16T08:25:53;52962.31;;;-146.10;76.76
12763;BME280;6445;52.490;13.378;2023-07-16T08:28:18;52958.31;;;-146.10;66.40
12763;BME280;6445;52.490;13.378;2023-07-16T08:30:46;53036.34;;;-146.10;50.50
12763;BME280;6445;52.490;13.378;2023-07-16T08:33:12;53280.50;;;-146.10;44.55
12763;BME280;6445;52.490;13.378;2023-07-16T08:35:39;53538.66;;;-146.10;39.15
12763;BME280;6445;52.490;13.378;2023-07-16T08:38:04;53568.66;;;-146.10;38.09
12763;BME280;6445;52.490;13.378;2023-07-16T08:40:34;53760.78;;;-146.10;34.66
12763;BME280;6445;52.490;13.378;2023-07-16T08:43:00;53602.69;;;-146.10;34.35
12763;BME280;6445;52.490;13.378;2023-07-16T08:45:27;53494.63;;;-146.10;35.16
12763;BME280;6445;52.490;13.378;2023-07-16T08:47:54;53042.38;;;-146.10;41.54
12763;BME280;6445;52.490;13.378;2023-07-16T08:50:21;53108.41;;;-146.10;41.92
12763;BME280;6445;52.490;13.378;2023-07-16T08:52:46;53136.41;;;-146.10;40.74
12763;BME280;6445;52.490;13.378;2023-07-16T08:55:12;53162.44;;;-146.10;40.59
12763;BME280;6445;52.490;13.378;2023-07-16T08:57:38;53180.44;;;-146.10;38.63
12763;BME280;6445;52.490;13.378;2023-07-16T09:00:05;53106.41;;;-146.10;39.70
12763;BME280;6445;52.490;13.378;2023-07-16T09:02:32;53242.47;;;-146.10;39.74
12763;BME280;6445;52.490;13.378;2023-07-16T09:04:58;53192.44;;;-146.10;39.48
12763;BME280;6445;52.490;13.378;2023-07-16T09:07:23;53280.50;;;-146.10;38.77
12763;BME280;6445;52.490;13.378;2023-07-16T09:09:58;53232.47;;;-146.10;37.65
12763;BME280;6445;52.490;13.378;2023-07-16T09:12:25;53160.44;;;-146.10;40.25
12763;BME280;6445;52.490;13.378;2023-07-16T09:14:50;53170.44;;;-146.10;39.74
12763;BME280;6445;52.490;13.378;2023-07-16T09:17:22;53194.44;;;-146.10;40.37
12763;BME280;6445;52.490;13.378;2023-07-16T09:19:49;53344.53;;;-146.10;37.98
12763;BME280;6445;52.490;13.378;2023-07-16T09:22:17;53376.53;;;-146.10;36.41
12763;BME280;6445;52.490;13.378;2023-07-16T09:24:45;53320.50;;;-146.10;37.16
12763;BME280;6445;52.490;13.378;2023-07-16T09:27:11;53344.53;;;-146.10;36.69
12763;BME280;6445;52.490;13.378;2023-07-16T09:29:38;53200.44;;;-146.10;38.70
12763;BME280;6445;52.490;13.378;2023-07-16T09:32:03;53054.38;;;-146.10;42.66
12763;BME280;6445;52.490;13.378;2023-07-16T09:34:30;53178.44;;;-146.10;40.31
12763;BME280;6445;52.490;13.378;2023-07-16T09:36:59;53132.41;;;-146.10;39.45
12763;BME280;6445;52.490;13.378;2023-07-16T09:39:25;53144.41;;;-146.10;38.87
12763;BME280;6445;52.490;13.378;2023-07-16T09:41:51;53162.44;;;-146.10;38.53
12763;BME280;6445;52.490;13.378;2023-07-16T09:44:17;53282.50;;;-146.10;36.67
12763;BME280;6445;52.490;13.378;2023-07-16T09:46:44;53344.53;;;-146.10;36.08
12763;BME280;6445;52.490;13.378;2023-07-16T09:49:09;53248.47;;;-146.10;35.56
12763;BME280;6445;52.490;13.378;2023-07-16T09:51:38;53072.38;;;-146.10;36.97
12763;BME280;6445;52.490;13.378;2023-07-16T09:54:05;53010.34;;;-146.10;38.21
12763;BME280;6445;52.490;13.378;2023-07-16T09:56:36;53110.41;;;-146.10;37.64
12763;BME280;6445;52.490;13.378;2023-07-16T09:59:08;53018.34;;;-146.10;38.46
12763;BME280;6445;52.490;13.378;2023-07-16T10:01:36;52990.34;;;-146.10;38.65
12763;BME280;6445;52.490;13.378;2023-07-16T10:04:37;53054.38;;;-146.10;39.19
12763;BME280;6445;52.490;13.378;2023-07-16T10:07:03;53148.41;;;-146.10;37.19
12763;BME280;6445;52.490;13.378;2023-07-16T10:09:33;53068.38;;;-146.10;36.64
12763;BME280;6445;52.490;13.378;2023-07-16T10:12:12;53290.50;;;-146.10;34.81
12763;BME280;6445;52.490;13.378;2023-07-16T10:14:51;53344.53;;;-146.10;34.05
12763;BME280;6445;52.490;13.378;2023-07-16T10:17:21;53400.56;;;-146.10;33.43
12763;BME280;6445;52.490;13.378;2023-07-16T10:25:23;53236.47;;;-146.10;35.25
12763;BME280;6445;52.490;13.378;2023-07-16T10:27:51;53090.38;;;-146.10;36.33
12763;BME280;6445;52.490;13.378;2023-07-16T10:30:17;53120.41;;;-146.10;37.08
12763;BME280;6445;52.490;13.378;2023-07-16T10:32:43;53066.38;;;-146.10;37.75
12763;BME280;6445;52.490;13.378;2023-07-16T10:35:09;53058.38;;;-146.10;38.10
12763;BME280;6445;52.490;13.378;2023-07-16T10:37:35;52992.34;;;-146.10;38.31
12763;BME280;6445;52.490;13.378;2023-07-16T10:40:01;52890.28;;;-146.10;40.88
12763;BME280;6445;52.490;13.378;2023-07-16T10:42:28;52860.28;;;-146.10;44.53
12763;BME280;6445;52.490;13.378;2023-07-16T10:44:55;52854.28;;;-146.10;43.07
12763;BME280;6445;52.490;13.378;2023-07-16T10:47:23;52802.25;;;-146.10;45.88
12763;BME280;6445;52.490;13.378;2023-07-16T10:49:50;52744.22;;;-146.10;47.45
12763;BME280;6445;52.490;13.378;2023-07-16T10:52:17;52704.19;;;-146.10;50.22
12763;BME280;6445;52.490;13.378;2023-07-16T10:54:43;52718.22;;;-146.10;51.48
12763;BME280;6445;52.490;13.378;2023-07-16T10:57:08;52722.22;;;-146.10;51.17
12763;BME280;6445;52.490;13.378;2023-07-16T10:59:37;52730.22;;;-146.10;50.54
12763;BME280;6445;52.490;13.378;2023-07-16T11:02:03;52750.22;;;-146.10;52.28
12763;BME280;6445;52.490;13.378;2023-07-16T11:04:33;52708.22;;;-146.10;51.15
12763;BME280;6445;52.490;13.378;2023-07-16T11:06:58;52738.22;;;-146.10;50.83
12763;BME280;6445;52.490;13.378;2023-07-16T11:09:23;52804.25;;;-146.10;48.47
12763;BME280;6445;52.490;13.378;2023-07-16T11:11:49;52834.25;;;-146.10;46.22
12763;BME280;6445;52.490;13.378;2023-07-16T11:14:14;52782.25;;;-146.10;47.29
12763;BME280;6445;52.490;13.378;2023-07-16T11:16:39;52838.25;;;-146.10;48.54
12763;BME280;6445;52.490;13.378;2023-07-16T11:19:05;52868.28;;;-146.10;nan
12763;BME280;6445;52.490;13.378;2023-07-16T11:21:33;52778.25;;;-146.10;48.96
12763;BME280;6445;52.490;13.378;2023-07-16T11:24:14;52786.25;;;-146.10;47.46
12763;BME280;6445;52.490;13.378;2023-07-16T11:26:49;52728.22;;;-146.10;51.50
12763;BME280;6445;52.490;13.378;2023-07-16T11:29:15;52826.25;;;-146.10;51.13
12763;BME280;6445;52.490;13.378;2023-07-16T11:31:40;52788.25;;;-146.10;49.54
12763;BME280;6445;52.490;13.378;2023-07-16T11:34:06;52726.22;;;-146.10;50.81
12763;BME280;6445;52.490;13.378;2023-07-16T11:36:32;52780.25;;;-146.10;50.91
12763;BME280;6445;52.490;13.378;2023-07-16T11:38:58;52860.28;;;-146.10;47.04
12763;BME280;6445;52.490;13.378;2023-07-16T11:41:23;52822.25;;;-146.10;48.35
12763;BME280;6445;52.490;13.378;2023-07-16T11:43:48;52856.28;;;-146.10;46.43
12763;BME280;6445;52.490;13.378;2023-07-16T11:46:15;52886.28;;;-146.10;42.64
12763;BME280;6445;52.490;13.378;2023-07-16T11:48:41;52960.31;;;-146.10;42.02
12763;BME280;6445;52.490;13.378;2023-07-16T11:51:06;52946.31;;;-146.10;40.18
12763;BME280;6445;52.490;13.378;2023-07-16T11:53:31;52918.31;;;-146.10;37.90
12763;BME280;6445;52.490;13.378;2023-07-16T11:55:56;52902.28;;;-146.10;37.27
12763;BME280;6445;52.490;13.378;2023-07-16T11:58:22;52834.25;;;-146.10;39.00
12763;BME280;6445;52.490;13.378;2023-07-16T12:00:47;52766.22;;;-146.10;41.16
12763;BME280;6445;52.490;13.378;2023-07-16T12:03:12;52744.22;;;-146.10;38.65
12763;BME280;6445;52.490;13.378;2023-07-16T12:05:37;52762.22;;;-146.10;35.70
12763;BME280;6445;52.490;13.378;2023-07-16T12:08:03;52794.25;;;-146.10;35.27
12763;BME280;6445;52.490;13.378;2023-07-16T12:10:29;52880.28;;;-146.10;34.65
12763;BME280;6445;52.490;13.378;2023-07-16T12:12:54;52836.25;;;-146.10;33.83
12763;BME280;6445;52.490;13.378;2023-07-16T12:15:19;52886.28;;;-146.10;33.09
12763;BME280;6445;52.490;13.378;2023-07-16T12:17:44;52882.28;;;-146.10;31.58
12763;BME280;6445;52.490;13.378;2023-07-16T12:20:10;52828.25;;;-146.10;31.89
12763;BME280;6445;52.490;13.378;2023-07-16T12:22:35;52964.31;;;-146.10;30.73
12763;BME280;6445;52.490;13.378;2023-07-16T12:25:01;52958.31;;;-146.10;30.12
12763;BME280;6445;52.490;13.378;2023-07-16T12:27:26;53040.38;;;-146.10;29.79
12763;BME280;6445;52.490;13.378;2023-07-16T12:29:52;52890.28;;;-146.10;30.87
12763;BME280;6445;52.490;13.378;2023-07-16T12:32:17;52998.34;;;-146.10;30.70
12763;BME280;6445;52.490;13.378;2023-07-16T12:34:42;52972.31;;;-146.10;30.04
12763;BME280;6445;52.490;13.378;2023-07-16T12:37:08;52894.28;;;-146.10;31.17
12763;BME280;6445;52.490;13.378;2023-07-16T12:39:33;52846.28;;;-146.10;30.93